sensor_id;sensor_type;location;lat;lon;timestamp;pressure;altitude;pressure_sealevel;temperature;humidity
75418;BME280;63997;52.112;5.420;2023-03-14T00:00:16;98978.03;;;10.00;84.66
75418;BME280;63997;52.112;5.420;2023-03-14T00:02:42;98983.81;;;10.05;83.83
75418;BME280;63997;52.112;5.420;2023-03-14T00:05:09;98981.16;;;10.05;83.68
75418;BME280;63997;52.112;5.420;2023-03-14T00:07:37;98989.06;;;10.02;83.43
75418;BME280;63997;52.112;5.420;2023-03-14T00:10:06;98984.88;;;10.01;83.45
75418;BME280;63997;52.112;5.420;2023-03-14T00:12:33;98987.53;;;10.01;83.27
75418;BME280;63997;52.112;5.420;2023-03-14T00:14:59;98987.16;;;10.02;82.85
75418;BME280;63997;52.112;5.420;2023-03-14T00:17:26;98983.44;;;10.07;82.82
75418;BME280;63997;52.112;5.420;2023-03-14T00:19:53;98981.16;;;10.09;82.39
75418;BME280;63997;52.112;5.420;2023-03-14T00:22:20;98979.72;;;10.15;81.78
75418;BME280;63997;52.112;5.420;2023-03-14T00:24:47;98977.13;;;10.19;81.54
75418;BME280;63997;52.112;5.420;2023-03-14T00:27:14;98968.75;;;10.17;81.42
75418;BME280;63997;52.112;5.420;2023-03-14T00:29:42;98971.41;;;10.17;81.08
75418;BME280;63997;52.112;5.420;2023-03-14T00:32:09;98975.19;;;10.16;80.81
75418;BME280;63997;52.112;5.420;2023-03-14T00:34:35;98971.81;;;10.19;80.51
75418;BME280;63997;52.112;5.420;2023-03-14T00:37:01;98979.00;;;10.18;80.03
75418;BME280;63997;52.112;5.420;2023-03-14T00:39:28;98980.16;;;10.21;79.83
75418;BME280;63997;52.112;5.420;2023-03-14T00:41:54;98976.00;;;10.20;79.77
75418;BME280;63997;52.112;5.420;2023-03-14T00:44:20;98984.31;;;10.18;79.64
75418;BME280;63997;52.112;5.420;2023-03-14T00:46:47;98977.50;;;10.17;79.52
75418;BME280;63997;52.112;5.420;2023-03-14T00:49:13;98980.91;;;10.18;79.09
75418;BME280;63997;52.112;5.420;2023-03-14T00:51:40;98974.84;;;10.17;79.44
75418;BME280;63997;52.112;5.420;2023-03-14T00:54:06;98980.16;;;10.17;79.81
75418;BME280;63997;52.112;5.420;2023-03-14T00:56:32;98982.38;;;10.15;79.49
75418;BME280;63997;52.112;5.420;2023-03-14T00:58:58;98986.59;;;10.16;79.42
75418;BME280;63997;52.112;5.420;2023-03-14T01:01:25;98995.66;;;10.15;79.27
75418;BME280;63997;52.112;5.420;2023-03-14T01:03:52;99000.97;;;10.15;79.36
75418;BME280;63997;52.112;5.420;2023-03-14T01:06:21;98996.78;;;10.14;79.32
75418;BME280;63997;52.112;5.420;2023-03-14T01:08:49;98994.88;;;10.11;79.40
75418;BME280;63997;52.112;5.420;2023-03-14T01:11:25;99001.25;;;10.06;80.21
75418;BME280;63997;52.112;5.420;2023-03-14T01:13:52;99006.13;;;10.01;80.48
75418;BME280;63997;52.112;5.420;2023-03-14T01:16:20;99007.56;;;9.95;81.30
75418;BME280;63997;52.112;5.420;2023-03-14T01:18:47;99015.78;;;9.86;82.25
75418;BME280;63997;52.112;5.420;2023-03-14T01:21:19;99017.97;;;9.80;82.82
75418;BME280;63997;52.112;5.420;2023-03-14T01:23:46;99026.25;;;9.75;83.16
75418;BME280;63997;52.112;5.420;2023-03-14T01:26:16;99024.63;;;9.67;84.08
75418;BME280;63997;52.112;5.420;2023-03-14T01:28:42;99019.22;;;9.60;84.66
75418;BME280;63997;52.112;5.420;2023-03-14T01:31:10;99026.28;;;9.52;85.46
75418;BME280;63997;52.112;5.420;2023-03-14T01:33:37;99010.25;;;9.45;85.98
75418;BME280;63997;52.112;5.420;2023-03-14T01:36:04;99012.06;;;9.38;86.66
75418;BME280;63997;52.112;5.420;2023-03-14T01:38:33;99012.75;;;9.35;86.76
75418;BME280;63997;52.112;5.420;2023-03-14T01:41:00;99019.09;;;9.30;87.21
75418;BME280;63997;52.112;5.420;2023-03-14T01:43:27;99011.13;;;9.26;87.49
75418;BME280;63997;52.112;5.420;2023-03-14T01:48:38;99007.56;;;9.19;87.64
75418;BME280;63997;52.112;5.420;2023-03-14T01:51:11;98992.38;;;9.16;87.88
75418;BME280;63997;52.112;5.420;2023-03-14T01:53:41;98987.41;;;9.14;88.10
75418;BME280;63997;52.112;5.420;2023-03-14T01:56:12;98988.88;;;9.12;88.38
75418;BME280;63997;52.112;5.420;2023-03-14T01:58:42;98978.97;;;9.09;88.08
75418;BME280;63997;52.112;5.420;2023-03-14T02:01:11;98974.03;;;9.07;88.08
75418;BME280;63997;52.112;5.420;2023-03-14T02:03:45;98972.09;;;9.04;88.29
75418;BME280;63997;52.112;5.420;2023-03-14T02:06:14;98981.59;;;9.05;88.13
75418;BME280;63997;52.112;5.420;2023-03-14T02:08:43;98972.09;;;9.04;88.10
75418;BME280;63997;52.112;5.420;2023-03-14T02:11:14;98981.59;;;9.05;87.84
75418;BME280;63997;52.112;5.420;2023-03-14T02:13:40;98986.53;;;9.07;87.54
75418;BME280;63997;52.112;5.420;2023-03-14T02:16:07;98978.94;;;9.05;87.71
75418;BME280;63997;52.112;5.420;2023-03-14T02:18:33;98978.19;;;9.05;87.72
75418;BME280;63997;52.112;5.420;2023-03-14T02:21:04;98978.19;;;9.05;87.79
75418;BME280;63997;52.112;5.420;2023-03-14T02:26:32;98964.91;;;9.05;87.70
75418;BME280;63997;52.112;5.420;2023-03-14T02:29:02;98962.25;;;9.05;87.54
75418;BME280;63997;52.112;5.420;2023-03-14T02:31:28;98968.69;;;9.04;87.68
75418;BME280;63997;52.112;5.420;2023-03-14T02:33:55;98960.75;;;9.04;87.63
75418;BME280;63997;52.112;5.420;2023-03-14T02:36:23;98967.50;;;9.01;87.58
75418;BME280;63997;52.112;5.420;2023-03-14T02:38:55;98971.34;;;9.04;87.55
75418;BME280;63997;52.112;5.420;2023-03-14T02:41:26;98961.44;;;9.00;87.67
75418;BME280;63997;52.112;5.420;2023-03-14T02:43:53;98959.91;;;8.99;87.87
75418;BME280;63997;52.112;5.420;2023-03-14T02:46:21;98967.09;;;8.99;87.88
75418;BME280;63997;52.112;5.420;2023-03-14T02:49:07;98959.47;;;8.97;88.10
75418;BME280;63997;52.112;5.420;2023-03-14T02:51:35;98947.72;;;8.95;88.29
75418;BME280;63997;52.112;5.420;2023-03-14T02:54:01;98951.47;;;8.94;88.40
75418;BME280;63997;52.112;5.420;2023-03-14T02:56:27;98946.53;;;8.92;88.48
75418;BME280;63997;52.112;5.420;2023-03-14T02:58:54;98949.19;;;8.92;88.56
75418;BME280;63997;52.112;5.420;2023-03-14T03:01:20;98935.50;;;8.90;88.72
75418;BME280;63997;52.112;5.420;2023-03-14T03:03:46;98937.41;;;8.90;88.73
75418;BME280;63997;52.112;5.420;2023-03-14T03:06:13;98936.28;;;8.91;88.85
75418;BME280;63997;52.112;5.420;2023-03-14T03:08:39;98938.94;;;8.91;88.96
75418;BME280;63997;52.112;5.420;2023-03-14T03:11:06;98929.44;;;8.90;88.92
75418;BME280;63997;52.112;5.420;2023-03-14T03:13:34;98937.00;;;8.88;88.73
75418;BME280;63997;52.112;5.420;2023-03-14T03:16:00;98928.63;;;8.86;88.78
75418;BME280;63997;52.112;5.420;2023-03-14T03:18:27;98940.34;;;8.85;88.71
75418;BME280;63997;52.112;5.420;2023-03-14T03:20:53;98939.97;;;8.86;88.79
75418;BME280;63997;52.112;5.420;2023-03-14T03:23:20;98933.91;;;8.86;88.61
75418;BME280;63997;52.112;5.420;2023-03-14T03:25:50;98932.03;;;8.86;88.53
75418;BME280;63997;52.112;5.420;2023-03-14T03:28:18;98924.16;;;8.90;88.65
75418;BME280;63997;52.112;5.420;2023-03-14T03:30:45;98927.56;;;8.90;88.58
75418;BME280;63997;52.112;5.420;2023-03-14T03:33:12;98917.72;;;8.91;88.22
75418;BME280;63997;52.112;5.420;2023-03-14T03:35:47;98924.97;;;8.94;88.01
75418;BME280;63997;52.112;5.420;2023-03-14T03:38:14;98925.75;;;8.94;88.25
75418;BME280;63997;52.112;5.420;2023-03-14T03:40:41;98921.56;;;8.93;88.20
75418;BME280;63997;52.112;5.420;2023-03-14T03:43:08;98923.50;;;8.96;87.97
75418;BME280;63997;52.112;5.420;2023-03-14T03:45:34;98910.59;;;8.95;87.97
75418;BME280;63997;52.112;5.420;2023-03-14T03:48:01;98904.53;;;8.94;87.81
75418;BME280;63997;52.112;5.420;2023-03-14T03:50:27;98901.13;;;8.94;87.57
75418;BME280;63997;52.112;5.420;2023-03-14T03:52:54;98905.28;;;8.95;87.78
75418;BME280;63997;52.112;5.420;2023-03-14T03:55:20;98906.06;;;8.95;87.68
75418;BME280;63997;52.112;5.420;2023-03-14T03:57:46;98907.59;;;8.96;87.70
75418;BME280;63997;52.112;5.420;2023-03-14T04:00:13;98912.53;;;8.98;87.33
75418;BME280;63997;52.112;5.420;2023-03-14T04:02:39;98905.75;;;9.00;87.08
75418;BME280;63997;52.112;5.420;2023-03-14T04:05:06;98906.53;;;9.01;87.21
75418;BME280;63997;52.112;5.420;2023-03-14T04:07:33;98901.63;;;9.03;87.16
75418;BME280;63997;52.112;5.420;2023-03-14T04:10:00;98909.25;;;9.05;86.85
75418;BME280;63997;52.112;5.420;2023-03-14T04:12:26;98911.91;;;9.08;86.88
75418;BME280;63997;52.112;5.420;2023-03-14T04:14:52;98916.91;;;9.10;86.64
75418;BME280;63997;52.112;5.420;2023-03-14T04:17:19;98910.47;;;9.11;86.37
75418;BME280;63997;52.112;5.420;2023-03-14T04:19:46;98917.69;;;9.14;86.40
75418;BME280;63997;52.112;5.420;2023-03-14T04:22:15;98919.25;;;9.15;86.11
75418;BME280;63997;52.112;5.420;2023-03-14T04:24:42;98913.63;;;9.20;86.05
75418;BME280;63997;52.112;5.420;2023-03-14T04:27:08;98912.84;;;9.19;86.08
75418;BME280;63997;52.112;5.420;2023-03-14T04:29:35;98927.66;;;9.20;85.93
75418;BME280;63997;52.112;5.420;2023-03-14T04:32:01;98910.63;;;9.21;85.98
75418;BME280;63997;52.112;5.420;2023-03-14T04:34:27;98915.16;;;9.21;86.00
75418;BME280;63997;52.112;5.420;2023-03-14T04:36:54;98913.28;;;9.21;86.07
75418;BME280;63997;52.112;5.420;2023-03-14T04:39:20;98909.50;;;9.22;85.75
75418;BME280;63997;52.112;5.420;2023-03-14T04:41:46;98904.19;;;9.22;85.83
75418;BME280;63997;52.112;5.420;2023-03-14T04:44:13;98904.97;;;9.23;85.84
75418;BME280;63997;52.112;5.420;2023-03-14T04:46:39;98901.19;;;9.24;85.93
75418;BME280;63997;52.112;5.420;2023-03-14T04:49:06;98894.41;;;9.26;85.68
75418;BME280;63997;52.112;5.420;2023-03-14T04:51:32;98896.69;;;9.28;85.97
75418;BME280;63997;52.112;5.420;2023-03-14T04:53:58;98892.16;;;9.28;85.72
75418;BME280;63997;52.112;5.420;2023-03-14T04:56:25;98893.28;;;9.27;85.85
75418;BME280;63997;52.112;5.420;2023-03-14T04:58:51;98891.38;;;9.28;85.82
75418;BME280;63997;52.112;5.420;2023-03-14T05:01:17;98893.28;;;9.27;85.80
75418;BME280;63997;52.112;5.420;2023-03-14T05:03:44;98887.59;;;9.29;86.05
75418;BME280;63997;52.112;5.420;2023-03-14T05:06:10;98885.72;;;9.30;85.99
75418;BME280;63997;52.112;5.420;2023-03-14T05:08:37;98894.03;;;9.28;86.30
75418;BME280;63997;52.112;5.420;2023-03-14T05:11:03;98905.72;;;9.23;86.66
75418;BME280;63997;52.112;5.420;2023-03-14T05:13:29;98900.03;;;9.21;86.82
75418;BME280;63997;52.112;5.420;2023-03-14T05:16:07;98892.75;;;9.18;87.52
75418;BME280;63997;52.112;5.420;2023-03-14T05:18:34;98889.28;;;9.14;87.84
75418;BME280;63997;52.112;5.420;2023-03-14T05:21:01;98884.31;;;9.09;88.11
75418;BME280;63997;52.112;5.420;2023-03-14T05:23:28;98885.00;;;9.06;88.53
75418;BME280;63997;52.112;5.420;2023-03-14T05:25:54;98874.34;;;9.02;88.68
75418;BME280;63997;52.112;5.420;2023-03-14T05:28:20;98877.72;;;8.99;89.30
75418;BME280;63997;52.112;5.420;2023-03-14T05:30:47;98882.59;;;8.97;89.22
75418;BME280;63997;52.112;5.420;2023-03-14T05:33:13;98874.59;;;8.94;89.40
75418;BME280;63997;52.112;5.420;2023-03-14T05:35:40;98876.06;;;8.91;89.58
75418;BME280;63997;52.112;5.420;2023-03-14T05:38:06;98879.84;;;8.90;89.89
75418;BME280;63997;52.112;5.420;2023-03-14T05:40:34;98876.38;;;8.86;89.94
75418;BME280;63997;52.112;5.420;2023-03-14T05:43:00;98869.53;;;8.85;90.15
75418;BME280;63997;52.112;5.420;2023-03-14T05:45:27;98877.84;;;8.84;90.44
75418;BME280;63997;52.112;5.420;2023-03-14T05:47:53;98874.81;;;8.82;90.52
75418;BME280;63997;52.112;5.420;2023-03-14T05:50:20;98875.50;;;8.79;90.90
75418;BME280;63997;52.112;5.420;2023-03-14T05:52:46;98876.97;;;8.76;91.29
75418;BME280;63997;52.112;5.420;2023-03-14T05:55:12;98870.13;;;8.75;91.44
75418;BME280;63997;52.112;5.420;2023-03-14T05:57:39;98882.63;;;8.74;91.46
75418;BME280;63997;52.112;5.420;2023-03-14T06:00:06;98870.84;;;8.72;91.57
75418;BME280;63997;52.112;5.420;2023-03-14T06:02:32;98864.03;;;8.71;91.76
75418;BME280;63997;52.112;5.420;2023-03-14T06:04:58;98867.44;;;8.71;91.86
75418;BME280;63997;52.112;5.420;2023-03-14T06:07:25;98868.56;;;8.70;91.81
75418;BME280;63997;52.112;5.420;2023-03-14T06:09:51;98863.28;;;8.70;92.13
75418;BME280;63997;52.112;5.420;2023-03-14T06:12:18;98860.63;;;8.70;92.17
75418;BME280;63997;52.112;5.420;2023-03-14T06:14:45;98865.91;;;8.70;92.33
75418;BME280;63997;52.112;5.420;2023-03-14T06:17:11;98871.63;;;8.72;92.29
75418;BME280;63997;52.112;5.420;2023-03-14T06:19:38;98865.19;;;8.73;92.53
75418;BME280;63997;52.112;5.420;2023-03-14T06:22:04;98876.56;;;8.74;92.53
75418;BME280;63997;52.112;5.420;2023-03-14T06:24:30;98877.75;;;8.77;92.75
75418;BME280;63997;52.112;5.420;2023-03-14T06:26:57;98869.44;;;8.78;92.64
75418;BME280;63997;52.112;5.420;2023-03-14T06:29:23;98870.19;;;8.79;92.64
75418;BME280;63997;52.112;5.420;2023-03-14T06:31:49;98877.38;;;8.78;92.69
75418;BME280;63997;52.112;5.420;2023-03-14T06:34:16;98861.84;;;8.77;92.76
75418;BME280;63997;52.112;5.420;2023-03-14T06:36:42;98879.28;;;8.78;93.03
75418;BME280;63997;52.112;5.420;2023-03-14T06:39:08;98915.66;;;8.81;92.99
75418;BME280;63997;52.112;5.420;2023-03-14T06:41:35;98931.91;;;8.79;92.77
75418;BME280;63997;52.112;5.420;2023-03-14T06:44:01;98951.22;;;8.80;92.98
75418;BME280;63997;52.112;5.420;2023-03-14T06:46:27;98962.97;;;8.79;92.65
75418;BME280;63997;52.112;5.420;2023-03-14T06:48:54;98966.34;;;8.76;92.21
75418;BME280;63997;52.112;5.420;2023-03-14T06:51:20;98979.44;;;8.68;91.50
75418;BME280;63997;52.112;5.420;2023-03-14T06:53:47;98991.44;;;8.62;91.29
75418;BME280;63997;52.112;5.420;2023-03-14T06:56:13;98994.66;;;8.52;90.38
75418;BME280;63997;52.112;5.420;2023-03-14T06:58:39;99003.19;;;8.42;89.68
75418;BME280;63997;52.112;5.420;2023-03-14T07:01:17;99021.53;;;8.35;89.77
75418;BME280;63997;52.112;5.420;2023-03-14T07:03:46;99032.09;;;8.31;89.72
75418;BME280;63997;52.112;5.420;2023-03-14T07:06:12;99023.66;;;8.26;89.44
75418;BME280;63997;52.112;5.420;2023-03-14T07:08:39;99027.69;;;8.19;89.47
75418;BME280;63997;52.112;5.420;2023-03-14T07:11:06;99040.47;;;8.17;89.48
75418;BME280;63997;52.112;5.420;2023-03-14T07:13:32;99041.19;;;8.14;89.75
75418;BME280;63997;52.112;5.420;2023-03-14T07:15:58;99054.75;;;8.13;89.72
75418;BME280;63997;52.112;5.420;2023-03-14T07:18:25;99066.81;;;8.10;89.76
75418;BME280;63997;52.112;5.420;2023-03-14T07:20:51;99069.47;;;8.10;89.89
75418;BME280;63997;52.112;5.420;2023-03-14T07:23:18;99083.38;;;8.07;89.92
75418;BME280;63997;52.112;5.420;2023-03-14T07:25:44;99090.50;;;8.03;89.71
75418;BME280;63997;52.112;5.420;2023-03-14T07:28:10;99104.41;;;8.00;89.78
75418;BME280;63997;52.112;5.420;2023-03-14T07:30:36;99116.38;;;7.94;89.16
75418;BME280;63997;52.112;5.420;2023-03-14T07:33:03;99121.91;;;7.89;89.29
75418;BME280;63997;52.112;5.420;2023-03-14T07:35:29;99133.22;;;7.86;88.99
75418;BME280;63997;52.112;5.420;2023-03-14T07:37:56;99136.44;;;7.79;88.80
75418;BME280;63997;52.112;5.420;2023-03-14T07:40:22;99155.31;;;7.78;88.83
75418;BME280;63997;52.112;5.420;2023-03-14T07:42:48;99157.84;;;7.74;88.70
75418;BME280;63997;52.112;5.420;2023-03-14T07:45:15;99181.25;;;7.72;89.17
75418;BME280;63997;52.112;5.420;2023-03-14T07:47:43;99191.06;;;7.72;88.98
75418;BME280;63997;52.112;5.420;2023-03-14T07:50:10;99195.94;;;7.69;89.21
75418;BME280;63997;52.112;5.420;2023-03-14T07:52:37;99201.47;;;7.64;88.14
75418;BME280;63997;52.112;5.420;2023-03-14T07:55:04;99215.72;;;7.60;88.88
75418;BME280;63997;52.112;5.420;2023-03-14T07:57:30;99224.75;;;7.59;88.89
75418;BME280;63997;52.112;5.420;2023-03-14T07:59:57;99231.47;;;7.56;88.62
75418;BME280;63997;52.112;5.420;2023-03-14T08:02:23;99246.69;;;7.59;88.29
75418;BME280;63997;52.112;5.420;2023-03-14T08:04:50;99263.91;;;7.53;88.13
75418;BME280;63997;52.112;5.420;2023-03-14T08:07:16;99287.13;;;7.32;86.89
75418;BME280;63997;52.112;5.420;2023-03-14T08:09:43;99302.16;;;7.03;86.83
75418;BME280;63997;52.112;5.420;2023-03-14T08:12:10;99306.38;;;6.80;86.93
75418;BME280;63997;52.112;5.420;2023-03-14T08:14:36;99325.09;;;6.62;87.44
75418;BME280;63997;52.112;5.420;2023-03-14T08:17:02;99340.25;;;6.53;87.50
75418;BME280;63997;52.112;5.420;2023-03-14T08:19:29;99337.47;;;6.38;86.36
75418;BME280;63997;52.112;5.420;2023-03-14T08:21:55;99372.97;;;6.28;87.00
75418;BME280;63997;52.112;5.420;2023-03-14T08:24:22;99368.56;;;6.20;87.02
75418;BME280;63997;52.112;5.420;2023-03-14T08:26:48;99383.97;;;6.18;87.15
75418;BME280;63997;52.112;5.420;2023-03-14T08:29:14;99400.56;;;6.18;87.06
75418;BME280;63997;52.112;5.420;2023-03-14T08:31:41;99391.75;;;6.14;86.13
75418;BME280;63997;52.112;5.420;2023-03-14T08:34:07;99420.22;;;6.08;86.95
75418;BME280;63997;52.112;5.420;2023-03-14T08:36:34;99415.84;;;6.13;87.21
75418;BME280;63997;52.112;5.420;2023-03-14T08:39:00;99437.25;;;6.11;87.13
75418;BME280;63997;52.112;5.420;2023-03-14T08:41:27;99447.66;;;5.95;86.51
75418;BME280;63997;52.112;5.420;2023-03-14T08:43:53;99460.44;;;6.05;87.26
75418;BME280;63997;52.112;5.420;2023-03-14T08:46:20;99468.91;;;6.11;87.21
75418;BME280;63997;52.112;5.420;2023-03-14T08:48:47;99475.94;;;6.28;87.16
75418;BME280;63997;52.112;5.420;2023-03-14T08:51:14;99489.31;;;6.23;86.38
75418;BME280;63997;52.112;5.420;2023-03-14T08:53:41;99500.94;;;6.30;86.65
75418;BME280;63997;52.112;5.420;2023-03-14T08:56:08;99513.59;;;6.37;85.71
75418;BME280;63997;52.112;5.420;2023-03-14T08:58:37;99527.78;;;6.32;85.28
75418;BME280;63997;52.112;5.420;2023-03-14T09:01:09;99527.78;;;6.32;84.96
75418;BME280;63997;52.112;5.420;2023-03-14T09:03:36;99544.84;;;6.35;84.99
75418;BME280;63997;52.112;5.420;2023-03-14T09:06:05;99556.56;;;6.46;85.19
75418;BME280;63997;52.112;5.420;2023-03-14T09:08:32;99558.13;;;6.47;83.77
75418;BME280;63997;52.112;5.420;2023-03-14T09:10:59;99578.00;;;6.45;83.46
75418;BME280;63997;52.112;5.420;2023-03-14T09:13:26;99580.53;;;6.41;82.56
75418;BME280;63997;52.112;5.420;2023-03-14T09:15:53;99593.72;;;6.41;82.83
75418;BME280;63997;52.112;5.420;2023-03-14T09:18:20;99601.66;;;6.41;83.04
75418;BME280;63997;52.112;5.420;2023-03-14T09:20:47;99612.34;;;6.45;82.75
75418;BME280;63997;52.112;5.420;2023-03-14T09:23:13;99618.28;;;6.42;82.17
75418;BME280;63997;52.112;5.420;2023-03-14T09:25:39;99629.59;;;6.42;82.16
75418;BME280;63997;52.112;5.420;2023-03-14T09:28:06;99641.56;;;6.40;81.50
75418;BME280;63997;52.112;5.420;2023-03-14T09:30:32;99646.66;;;6.45;81.55
75418;BME280;63997;52.112;5.420;2023-03-14T09:32:59;99649.44;;;6.48;81.90
75418;BME280;63997;52.112;5.420;2023-03-14T09:35:26;99654.72;;;6.48;80.76
75418;BME280;63997;52.112;5.420;2023-03-14T09:37:52;99673.84;;;6.45;80.88
75418;BME280;63997;52.112;5.420;2023-03-14T09:40:19;99681.66;;;6.42;79.46
75418;BME280;63997;52.112;5.420;2023-03-14T09:42:53;99695.19;;;6.40;79.44
75418;BME280;63997;52.112;5.420;2023-03-14T09:45:36;99699.22;;;6.38;79.91
75418;BME280;63997;52.112;5.420;2023-03-14T09:48:19;99718.63;;;6.42;78.54
75418;BME280;63997;52.112;5.420;2023-03-14T09:50:49;99726.22;;;6.43;80.20
75418;BME280;63997;52.112;5.420;2023-03-14T09:53:32;99739.38;;;6.52;79.25
75418;BME280;63997;52.112;5.420;2023-03-14T09:56:01;99733.34;;;6.51;78.59
75418;BME280;63997;52.112;5.420;2023-03-14T09:58:29;99747.91;;;6.57;79.05
75418;BME280;63997;52.112;5.420;2023-03-14T10:00:57;99756.69;;;6.70;78.49
75418;BME280;63997;52.112;5.420;2023-03-14T10:03:26;99765.66;;;6.78;78.82
75418;BME280;63997;52.112;5.420;2023-03-14T10:05:55;99766.75;;;6.77;77.63
75418;BME280;63997;52.112;5.420;2023-03-14T10:08:22;99764.56;;;6.79;78.20
75418;BME280;63997;52.112;5.420;2023-03-14T10:10:48;99788.94;;;6.84;76.88
75418;BME280;63997;52.112;5.420;2023-03-14T10:15:51;99802.28;;;6.88;77.28
75418;BME280;63997;52.112;5.420;2023-03-14T10:18:18;99819.44;;;6.82;79.00
75418;BME280;63997;52.112;5.420;2023-03-14T10:20:48;99837.66;;;6.75;77.89
75418;BME280;63997;52.112;5.420;2023-03-14T10:25:48;99862.72;;;6.60;78.78
75418;BME280;63997;52.112;5.420;2023-03-14T10:28:26;99870.34;;;6.53;80.05
75418;BME280;63997;52.112;5.420;2023-03-14T10:30:54;99875.00;;;6.56;80.08
75418;BME280;63997;52.112;5.420;2023-03-14T10:35:53;99893.88;;;6.84;80.74
75418;BME280;63997;52.112;5.420;2023-03-14T10:38:24;99899.75;;;6.89;78.30
75418;BME280;63997;52.112;5.420;2023-03-14T10:40:52;99914.53;;;6.91;78.16
75418;BME280;63997;52.112;5.420;2023-03-14T10:43:23;99910.09;;;6.74;76.36
75418;BME280;63997;52.112;5.420;2023-03-14T10:45:58;99926.22;;;6.72;76.85
75418;BME280;63997;52.112;5.420;2023-03-14T10:48:34;99948.31;;;6.76;78.24
75418;BME280;63997;52.112;5.420;2023-03-14T10:53:49;99975.94;;;6.79;77.11
75418;BME280;63997;52.112;5.420;2023-03-14T10:56:18;99981.88;;;6.76;77.78
75418;BME280;63997;52.112;5.420;2023-03-14T10:58:50;100002.09;;;6.72;76.87
75418;BME280;63997;52.112;5.420;2023-03-14T11:01:40;100013.59;;;6.67;77.05
75418;BME280;63997;52.112;5.420;2023-03-14T11:07:03;100026.66;;;6.55;76.99
75418;BME280;63997;52.112;5.420;2023-03-14T11:15:00;100049.66;;;6.54;72.89
75418;BME280;63997;52.112;5.420;2023-03-14T11:17:47;100056.19;;;6.66;72.86
75418;BME280;63997;52.112;5.420;2023-03-14T11:20:35;100066.59;;;6.71;71.79
75418;BME280;63997;52.112;5.420;2023-03-14T11:23:20;100082.56;;;7.00;72.30
75418;BME280;63997;52.112;5.420;2023-03-14T11:26:04;100084.69;;;7.33;71.40
75418;BME280;63997;52.112;5.420;2023-03-14T11:28:50;100072.00;;;7.56;70.62
75418;BME280;63997;52.112;5.420;2023-03-14T11:31:28;100097.41;;;7.48;69.66
75418;BME280;63997;52.112;5.420;2023-03-14T11:34:12;100104.25;;;7.49;68.09
75418;BME280;63997;52.112;5.420;2023-03-14T11:37:06;100114.19;;;7.61;67.20
75418;BME280;63997;52.112;5.420;2023-03-14T11:39:41;100129.63;;;7.50;63.57
75418;BME280;63997;52.112;5.420;2023-03-14T11:42:16;100141.41;;;7.61;66.36
75418;BME280;63997;52.112;5.420;2023-03-14T11:44:46;100141.66;;;7.86;62.51
75418;BME280;63997;52.112;5.420;2023-03-14T11:47:26;100158.63;;;7.85;63.98
75418;BME280;63997;52.112;5.420;2023-03-14T11:50:07;100160.31;;;7.98;63.42
75418;BME280;63997;52.112;5.420;2023-03-14T11:52:56;100159.53;;;7.89;62.72
75418;BME280;63997;52.112;5.420;2023-03-14T11:55:29;100178.69;;;7.94;63.55
75418;BME280;63997;52.112;5.420;2023-03-14T11:58:00;100178.53;;;7.91;60.19
75418;BME280;63997;52.112;5.420;2023-03-14T12:00:28;100174.66;;;7.88;62.36
75418;BME280;63997;52.112;5.420;2023-03-14T12:08:29;100189.22;;;8.50;58.26
75418;BME280;63997;52.112;5.420;2023-03-14T12:11:03;100203.22;;;8.51;61.32
75418;BME280;63997;52.112;5.420;2023-03-14T12:13:34;100200.50;;;8.38;59.74
75418;BME280;63997;52.112;5.420;2023-03-14T12:16:05;100219.63;;;8.44;59.54
75418;BME280;63997;52.112;5.420;2023-03-14T12:18:35;100220.84;;;8.46;58.08
75418;BME280;63997;52.112;5.420;2023-03-14T12:21:10;100219.53;;;8.61;56.99
75418;BME280;63997;52.112;5.420;2023-03-14T12:23:48;100230.69;;;8.46;59.06
75418;BME280;63997;52.112;5.420;2023-03-14T12:26:22;100219.19;;;8.42;54.12
75418;BME280;63997;52.112;5.420;2023-03-14T12:39:31;100260.81;;;8.33;56.55
75418;BME280;63997;52.112;5.420;2023-03-14T12:42:22;100262.53;;;8.29;52.30
75418;BME280;63997;52.112;5.420;2023-03-14T12:50:54;100266.16;;;8.62;54.58
75418;BME280;63997;52.112;5.420;2023-03-14T12:56:04;100288.00;;;8.59;52.32
75418;BME280;63997;52.112;5.420;2023-03-14T12:58:38;100305.84;;;8.33;48.13
75418;BME280;63997;52.112;5.420;2023-03-14T13:01:17;100307.59;;;8.20;54.40
75418;BME280;63997;52.112;5.420;2023-03-14T13:03:52;100315.06;;;8.18;51.99
75418;BME280;63997;52.112;5.420;2023-03-14T13:06:50;100328.81;;;7.94;51.50
75418;BME280;63997;52.112;5.420;2023-03-14T13:11:56;100333.97;;;7.99;49.83
75418;BME280;63997;52.112;5.420;2023-03-14T13:14:28;100334.72;;;8.08;52.93
75418;BME280;63997;52.112;5.420;2023-03-14T13:16:59;100343.72;;;8.25;50.77
75418;BME280;63997;52.112;5.420;2023-03-14T13:19:50;100345.56;;;8.41;54.20
75418;BME280;63997;52.112;5.420;2023-03-14T13:22:28;100345.72;;;8.54;51.47
75418;BME280;63997;52.112;5.420;2023-03-14T13:25:00;100353.63;;;8.62;51.22
75418;BME280;63997;52.112;5.420;2023-03-14T13:27:30;100365.91;;;8.76;52.26
75418;BME280;63997;52.112;5.420;2023-03-14T13:29:56;100369.28;;;8.85;51.83
75418;BME280;63997;52.112;5.420;2023-03-14T13:32:28;100383.78;;;8.87;48.76
75418;BME280;63997;52.112;5.420;2023-03-14T13:34:58;100402.38;;;8.79;51.57
75418;BME280;63997;52.112;5.420;2023-03-14T13:37:26;100404.13;;;8.66;48.39
75418;BME280;63997;52.112;5.420;2023-03-14T13:39:55;100404.66;;;8.42;49.70
75418;BME280;63997;52.112;5.420;2023-03-14T13:42:29;100406.84;;;8.14;51.82
75418;BME280;63997;52.112;5.420;2023-03-14T13:44:56;100422.13;;;8.08;52.16
75418;BME280;63997;52.112;5.420;2023-03-14T13:47:24;100435.34;;;8.34;51.57
75418;BME280;63997;52.112;5.420;2023-03-14T13:49:52;100428.97;;;8.27;47.18
75418;BME280;63997;52.112;5.420;2023-03-14T13:52:35;100433.63;;;8.30;49.14
75418;BME280;63997;52.112;5.420;2023-03-14T13:55:03;100441.72;;;8.33;51.10
75418;BME280;63997;52.112;5.420;2023-03-14T13:57:51;100448.75;;;8.55;50.85
75418;BME280;63997;52.112;5.420;2023-03-14T14:00:25;100449.72;;;8.42;51.13
75418;BME280;63997;52.112;5.420;2023-03-14T14:02:54;100462.63;;;8.26;53.83
75418;BME280;63997;52.112;5.420;2023-03-14T14:05:22;100460.59;;;8.14;51.48
75418;BME280;63997;52.112;5.420;2023-03-14T14:07:49;100473.06;;;8.14;51.18